Time;durP1;ratioP1;P1;durP2;ratioP2;P2;SDS_P1;SDS_P2;PMS_P1;PMS_P2;Temp;Humidity;BMP_temperature;BMP_pressure;BME280_temperature;BME280_humidity;BME280_pressure;Samples;Min_cycle;Max_cycle;Signal;HPM_P1;HPM_P2
2021/08/27 00:03:41;;;;;;;4.65;3.35;;;;;;;13.92;81.69;95929.94;5308979;55;20123;-72
2021/08/27 00:08:44;;;;;;;3.60;3.08;;;;;;;14.20;82.62;95923.31;5307543;55;20119;-72
2021/08/27 00:13:46;;;;;;;4.55;3.15;;;;;;;14.20;81.62;95922.56;5299465;55;20586;-72
2021/08/27 00:18:49;;;;;;;8.43;3.35;;;;;;;14.12;81.63;95913.91;5307688;55;20218;-70
2021/08/27 00:23:51;;;;;;;4.50;3.35;;;;;;;14.05;81.88;95911.59;5307213;55;20123;-71
2021/08/27 00:28:54;;;;;;;5.22;3.50;;;;;;;13.93;82.70;95906.47;5307979;56;20101;-71
2021/08/27 00:33:57;;;;;;;5.88;3.40;;;;;;;14.05;83.76;95911.59;5308842;56;20132;-73
2021/08/27 00:38:59;;;;;;;4.82;3.15;;;;;;;14.18;83.61;95905.63;5308398;56;20128;-71
2021/08/27 00:44:01;;;;;;;4.22;3.05;;;;;;;14.14;84.55;95914.19;5311611;55;20123;-71
2021/08/27 00:49:04;;;;;;;4.72;3.00;;;;;;;14.22;84.84;95906.91;5312227;55;20119;-72
2021/08/27 00:54:06;;;;;;;4.53;2.70;;;;;;;14.05;84.25;95908.81;5311410;55;20128;-71
2021/08/27 00:59:09;;;;;;;3.45;2.80;;;;;;;13.68;85.25;95911.56;5310331;55;20128;-72
2021/08/27 01:04:12;;;;;;;7.70;3.63;;;;;;;13.76;84.85;95902.78;5311018;55;20685;-72
2021/08/27 01:09:36;;;;;;;4.38;3.95;;;;;;;13.83;84.56;95894.00;5309910;55;20127;-73
2021/08/27 01:14:42;;;;;;;6.97;3.88;;;;;;;13.77;85.62;95909.88;5315970;55;20128;-73
2021/08/27 01:20:02;;;;;;;6.35;3.70;;;;;;;13.77;85.24;95902.31;5309232;55;20136;-72
2021/08/27 01:25:08;;;;;;;4.90;3.42;;;;;;;13.98;85.03;95919.63;5310629;55;20115;-73
2021/08/27 01:30:21;;;;;;;4.15;3.28;;;;;;;14.08;85.37;95918.94;5310833;55;20118;-71
2021/08/27 01:35:26;;;;;;;4.97;3.95;;;;;;;14.19;85.33;95930.13;5316281;55;20132;-72
2021/08/27 01:40:31;;;;;;;4.28;3.25;;;;;;;14.11;85.72;95933.88;5311778;55;20127;-72
2021/08/27 01:45:34;;;;;;;5.35;3.78;;;;;;;14.13;86.24;95925.81;5306760;55;20110;-73
2021/08/27 01:50:39;;;;;;;6.28;4.18;;;;;;;13.92;87.35;95939.03;5302282;55;20136;-72
2021/08/27 01:55:43;;;;;;;5.63;3.58;;;;;;;14.05;88.31;95935.84;5294672;55;20248;-72
2021/08/27 02:00:46;;;;;;;6.28;4.10;;;;;;;13.87;89.68;95950.84;5289868;56;20146;-72
2021/08/27 02:05:50;;;;;;;6.07;3.15;;;;;;;12.98;93.14;95952.72;5306790;56;20140;-72
2021/08/27 02:10:53;;;;;;;7.45;4.68;;;;;;;12.97;93.49;95961.53;5309272;56;20123;-72
2021/08/27 02:15:56;;;;;;;7.10;4.30;;;;;;;12.83;94.96;95952.06;5305956;56;20124;-72
2021/08/27 02:21:02;;;;;;;7.00;4.32;;;;;;;13.13;94.56;95957.47;5303448;56;20132;-75
2021/08/27 02:26:06;;;;;;;10.35;4.47;;;;;;;12.98;95.23;95952.72;5294569;56;20124;-72
2021/08/27 02:31:09;;;;;;;7.57;4.55;;;;;;;13.15;95.57;95961.28;5291338;56;20658;-72
2021/08/27 02:36:16;;;;;;;9.05;4.40;;;;;;;13.44;94.42;95951.97;5287144;56;20124;-73
2021/08/27 02:41:18;;;;;;;5.40;4.00;;;;;;;13.45;94.26;95945.97;5287135;56;20128;-74
2021/08/27 02:46:20;;;;;;;7.32;4.50;;;;;;;13.54;93.53;95948.56;5286615;56;20115;-74
2021/08/27 02:51:33;;;;;;;6.18;4.50;;;;;;;13.59;94.07;95958.19;5288156;56;20124;-74
2021/08/27 02:56:41;;;;;;;5.85;4.38;;;;;;;13.59;93.50;95945.06;5290064;56;20127;-72
2021/08/27 03:01:52;;;;;;;9.75;4.45;;;;;;;13.74;92.79;95949.72;5288806;56;20232;-74
2021/08/27 03:07:05;;;;;;;6.55;4.32;;;;;;;13.79;92.06;95941.47;5279064;55;21101;-72
2021/08/27 03:12:12;;;;;;;5.25;3.92;;;;;;;13.87;92.42;95938.97;5303496;55;20923;-73
2021/08/27 03:17:18;;;;;;;9.60;5.10;;;;;;;13.68;92.56;95928.22;5309232;55;20124;-72
2021/08/27 03:22:29;;;;;;;9.18;5.13;;;;;;;13.58;93.33;95940.00;5309387;55;20644;-72
2021/08/27 03:27:35;;;;;;;6.63;4.88;;;;;;;13.65;93.49;95928.47;5309009;55;20224;-73
2021/08/27 03:32:38;;;;;;;7.55;4.90;;;;;;;13.71;93.59;95928.50;5309121;55;20141;-73
2021/08/27 03:37:41;;;;;;;7.85;5.18;;;;;;;13.63;93.64;95928.97;5309132;55;20105;-74
2021/08/27 03:42:44;;;;;;;11.15;5.93;;;;;;;13.49;94.11;95929.84;5300054;55;20667;-73
2021/08/27 03:47:49;;;;;;;7.00;5.28;;;;;;;13.52;93.75;95928.84;5309121;55;20136;-73
2021/08/27 03:52:53;;;;;;;8.63;6.15;;;;;;;13.20;96.18;95945.94;5307069;55;20128;-76
2021/08/27 03:57:57;;;;;;;6.07;4.35;;;;;;;12.97;96.90;95947.66;5307347;55;20220;-73
2021/08/27 04:03:12;;;;;;;8.75;5.40;;;;;;;13.38;94.83;95951.94;5298576;55;20645;-72
2021/08/27 04:08:14;;;;;;;8.02;4.93;;;;;;;13.23;95.71;95958.84;5306946;55;20166;-72
2021/08/27 04:13:16;;;;;;;7.18;5.30;;;;;;;12.92;96.95;95954.69;5289007;55;20110;-73
2021/08/27 04:18:19;;;;;;;7.22;4.70;;;;;;;13.00;96.89;95954.25;5298781;55;20132;-74
2021/08/27 04:23:21;;;;;;;7.38;4.55;;;;;;;13.25;95.33;95959.13;5308676;55;20114;-73
2021/08/27 04:28:23;;;;;;;6.50;4.30;;;;;;;13.13;95.71;95957.47;5308456;56;20124;-76
2021/08/27 04:33:26;;;;;;;7.38;4.18;;;;;;;13.26;95.09;95961.38;5307611;56;20123;-73
2021/08/27 04:38:28;;;;;;;6.38;3.95;;;;;;;13.35;94.14;95960.47;5307924;56;20825;-72
2021/08/27 04:43:30;;;;;;;7.78;3.65;;;;;;;13.22;95.07;95949.75;5307024;56;20119;-73
2021/08/27 04:48:33;;;;;;;5.13;3.60;;;;;;;13.35;94.48;95950.13;5306968;56;20119;-72
2021/08/27 04:53:36;;;;;;;6.10;3.65;;;;;;;13.36;94.61;95950.91;5306684;55;20698;-72
2021/08/27 04:58:38;;;;;;;4.47;3.05;;;;;;;13.53;93.36;95944.25;5308547;56;20312;-73
2021/08/27 05:03:41;;;;;;;3.53;2.58;;;;;;;13.49;93.55;95956.81;5310581;56;20328;-73
2021/08/27 05:08:43;;;;;;;2.67;2.47;;;;;;;13.57;93.27;95947.56;5308893;56;20114;-73
2021/08/27 05:13:46;;;;;;;4.57;2.90;;;;;;;13.68;91.42;95961.53;5311221;56;20133;-73
2021/08/27 05:18:48;;;;;;;2.78;2.50;;;;;;;13.04;94.65;95971.44;5307848;56;20133;-73
2021/08/27 05:23:52;;;;;;;3.95;2.50;;;;;;;13.07;94.44;95981.59;5307601;56;20110;-73
2021/08/27 05:28:54;;;;;;;2.60;2.35;;;;;;;13.37;92.82;95977.38;5301127;55;20132;-72
2021/08/27 05:33:59;;;;;;;2.30;2.05;;;;;;;13.48;92.38;95969.94;5311032;55;20149;-73
2021/08/27 05:39:02;;;;;;;3.25;2.58;;;;;;;13.35;93.43;95972.34;5311772;55;20131;-73
2021/08/27 05:44:04;;;;;;;2.53;2.22;;;;;;;13.71;92.53;95976.47;5302867;55;20110;-73
2021/08/27 05:49:07;;;;;;;4.20;2.70;;;;;;;13.74;92.02;95981.03;5312541;55;20127;-72
2021/08/27 05:54:09;;;;;;;2.25;2.08;;;;;;;13.99;90.68;95983.03;5311683;55;20137;-72
2021/08/27 05:59:12;;;;;;;3.10;2.20;;;;;;;13.90;91.46;95983.22;5302801;55;20132;-72
2021/08/27 06:04:15;;;;;;;3.50;3.05;;;;;;;14.34;89.71;95978.00;5311403;55;20119;-72
2021/08/27 06:09:17;;;;;;;3.92;3.33;;;;;;;14.32;90.28;95983.31;5306753;55;20158;-72
2021/08/27 06:14:19;;;;;;;4.30;3.30;;;;;;;14.18;90.39;95998.06;5310725;55;20128;-73
2021/08/27 06:19:22;;;;;;;5.75;3.63;;;;;;;14.17;90.72;96002.13;5310056;55;20649;-72
2021/08/27 06:24:25;;;;;;;5.25;4.10;;;;;;;14.41;90.90;96006.59;5310186;55;20136;-73
2021/08/27 06:29:27;;;;;;;5.10;3.80;;;;;;;14.42;90.19;96010.91;5311059;55;20680;-72
2021/08/27 06:34:29;;;;;;;4.10;3.38;;;;;;;13.98;90.64;96014.84;5311297;55;20317;-73
2021/08/27 06:39:32;;;;;;;4.32;2.90;;;;;;;14.09;90.56;96017.69;5309866;55;20127;-72
2021/08/27 06:44:34;;;;;;;4.75;3.97;;;;;;;14.29;90.50;96023.19;5310273;55;20119;-72
2021/08/27 06:49:37;;;;;;;3.45;3.10;;;;;;;14.44;87.91;96028.63;5310353;55;20123;-72
2021/08/27 06:54:39;;;;;;;4.85;3.55;;;;;;;14.24;89.14;96028.69;5310666;55;20122;-73
2021/08/27 06:59:41;;;;;;;3.53;3.22;;;;;;;15.07;87.87;96027.22;5313314;55;20127;-72
2021/08/27 07:04:44;;;;;;;5.60;3.17;;;;;;;14.78;88.07;96032.38;5311303;55;20106;-73
2021/08/27 07:09:46;;;;;;;3.67;2.47;;;;;;;14.54;87.05;96027.16;5308583;55;20127;-71
2021/08/27 07:14:50;;;;;;;3.85;2.63;;;;;;;15.43;87.13;96045.09;5308449;55;20125;-72
2021/08/27 07:19:53;;;;;;;3.85;2.90;;;;;;;15.58;84.38;96039.34;5309485;55;20122;-71
2021/08/27 07:24:55;;;;;;;3.28;2.60;;;;;;;14.96;85.30;96043.09;5308418;55;20119;-72
2021/08/27 07:29:59;;;;;;;3.35;2.40;;;;;;;15.34;83.94;96042.53;5308762;55;20127;-72
2021/08/27 07:35:01;;;;;;;4.72;2.45;;;;;;;15.53;80.53;96040.88;5309679;55;20218;-71
2021/08/27 07:40:06;;;;;;;2.78;2.38;;;;;;;15.33;81.97;96043.81;5308775;55;20133;-71
2021/08/27 07:45:09;;;;;;;3.35;2.22;;;;;;;15.62;80.73;96037.84;5325969;55;20115;-72
2021/08/27 07:50:14;;;;;;;3.20;2.42;;;;;;;15.87;78.03;96044.50;5327194;55;20115;-71
2021/08/27 07:55:16;;;;;;;2.45;2.25;;;;;;;16.32;76.48;96045.28;5315604;55;20106;-72
2021/08/27 08:00:18;;;;;;;3.28;2.35;;;;;;;15.76;78.00;96052.81;5317536;55;20118;-71
2021/08/27 08:05:21;;;;;;;2.35;1.85;;;;;;;15.29;79.85;96062.00;5317751;55;20110;-72
2021/08/27 08:10:23;;;;;;;3.42;2.15;;;;;;;15.81;78.14;96057.63;5300946;55;20106;-72
2021/08/27 08:15:28;;;;;;;2.35;2.15;;;;;;;15.87;79.01;96066.00;5295745;55;20102;-72
2021/08/27 08:20:31;;;;;;;2.22;1.90;;;;;;;16.04;79.15;96067.56;5299403;55;20132;-72
2021/08/27 08:25:34;;;;;;;2.15;1.75;;;;;;;15.84;77.43;96067.00;5295440;55;20106;-72
2021/08/27 08:30:37;;;;;;;1.65;1.50;;;;;;;15.65;76.46;96075.06;5298115;56;20132;-72
2021/08/27 08:35:39;;;;;;;2.30;1.42;;;;;;;15.93;75.73;96064.75;5294329;55;20565;-72
2021/08/27 08:40:43;;;;;;;2.58;1.65;;;;;;;16.31;74.03;96082.78;5306906;55;20123;-74
2021/08/27 08:45:48;;;;;;;2.03;1.83;;;;;;;15.94;75.99;96076.66;5305201;55;20119;-73
2021/08/27 08:50:51;;;;;;;2.65;2.00;;;;;;;16.83;76.75;96077.47;5299135;55;20123;-72
2021/08/27 08:55:53;;;;;;;3.15;1.67;;;;;;;17.49;69.91;96071.72;5321177;55;20118;-71
2021/08/27 09:00:56;;;;;;;1.48;1.38;;;;;;;18.24;63.62;96084.31;5309393;55;20163;-71
2021/08/27 09:05:59;;;;;;;1.50;1.40;;;;;;;17.80;65.38;96078.97;5309998;55;20241;-72
2021/08/27 09:11:22;;;;;;;1.80;1.48;;;;;;;17.17;67.38;96076.91;5319591;55;20542;-72
2021/08/27 09:16:28;;;;;;;1.35;1.25;;;;;;;17.98;66.05;96083.97;5310134;55;20117;-70
2021/08/27 09:21:46;;;;;;;1.45;1.35;;;;;;;18.53;63.16;96082.88;5309458;55;20114;-72
2021/08/27 09:27:00;;;;;;;1.40;1.27;;;;;;;18.34;59.28;96071.53;5317293;55;20122;-72
2021/08/27 09:32:29;;;;;;;2.83;1.23;;;;;;;18.26;63.39;96075.41;5310782;55;20119;-72
2021/08/27 09:37:57;;;;;;;1.00;1.00;;;;;;;17.18;66.16;96064.50;5302189;55;20208;-70
2021/08/27 09:43:00;;;;;;;1.30;1.17;;;;;;;17.00;63.38;96059.47;5304792;55;20124;-70
2021/08/27 09:48:05;;;;;;;1.00;1.00;;;;;;;17.57;61.76;96064.34;5323014;55;20106;-70
2021/08/27 09:53:11;;;;;;;1.58;1.20;;;;;;;16.68;65.27;96063.03;5313977;55;20105;-71
2021/08/27 09:58:14;;;;;;;2.58;1.02;;;;;;;16.10;65.70;96059.97;5299501;55;20118;-71
2021/08/27 10:03:19;;;;;;;2.60;1.20;;;;;;;15.87;68.33;96066.00;5303545;55;20208;-71
2021/08/27 10:08:28;;;;;;;3.40;1.00;;;;;;;15.78;70.97;96064.97;5309869;55;20114;-70
2021/08/27 10:13:30;;;;;;;2.43;1.17;;;;;;;15.87;76.26;96077.16;5308719;55;20747;-70
2021/08/27 10:18:33;;;;;;;2.50;1.23;;;;;;;15.28;78.57;96083.50;5308865;55;20119;-71
2021/08/27 10:23:36;;;;;;;2.25;1.40;;;;;;;15.56;80.99;96087.19;5299613;55;20114;-71
2021/08/27 10:28:38;;;;;;;1.98;1.30;;;;;;;15.59;81.46;96079.84;5308771;55;20590;-72
2021/08/27 10:33:41;;;;;;;2.38;1.63;;;;;;;15.77;79.47;96085.75;5310100;55;20110;-71
2021/08/27 10:38:45;;;;;;;1.63;1.40;;;;;;;16.31;77.56;96091.16;5309098;55;20614;-73
2021/08/27 10:43:53;;;;;;;1.48;1.38;;;;;;;17.15;74.89;96078.69;5308731;55;20132;-72
2021/08/27 10:48:56;;;;;;;1.00;1.00;;;;;;;17.45;71.51;96071.25;5307696;55;20114;-71
2021/08/27 10:53:58;;;;;;;0.90;0.90;;;;;;;17.26;70.87;96063.94;5308303;55;20110;-70
2021/08/27 10:59:07;;;;;;;1.60;1.38;;;;;;;19.83;66.38;96060.88;5310256;55;20102;-69
2021/08/27 11:04:23;;;;;;;2.03;1.50;;;;;;;19.98;62.07;96060.44;5308456;55;20105;-71
2021/08/27 11:09:26;;;;;;;2.72;1.50;;;;;;;19.54;60.66;96061.03;5308032;55;20114;-71
2021/08/27 11:14:29;;;;;;;2.53;1.40;;;;;;;18.81;62.25;96051.84;5307205;55;20685;-70
2021/08/27 11:19:32;;;;;;;1.77;1.40;;;;;;;19.50;61.15;96038.88;5307768;55;20230;-71
2021/08/27 11:24:35;;;;;;;2.47;1.40;;;;;;;17.86;62.15;96046.19;5307781;55;20651;-71
2021/08/27 11:29:39;;;;;;;1.80;1.60;;;;;;;18.97;62.34;96045.31;5307493;55;20627;-74
2021/08/27 11:34:54;;;;;;;1.38;1.27;;;;;;;20.45;59.07;96041.13;5307957;55;20636;-73
2021/08/27 11:39:58;;;;;;;1.40;1.30;;;;;;;21.70;54.68;96035.00;5311096;55;20208;-71
2021/08/27 11:45:09;;;;;;;1.92;1.75;;;;;;;21.32;52.30;96020.44;5310453;55;20109;-72
2021/08/27 11:50:26;;;;;;;1.73;1.40;;;;;;;21.46;55.40;96027.59;5309788;55;20119;-72
2021/08/27 11:55:29;;;;;;;2.60;1.60;;;;;;;18.90;59.56;96015.88;5307416;55;20675;-72
2021/08/27 12:00:39;;;;;;;4.82;1.70;;;;;;;19.14;58.87;96023.47;5295382;55;20125;-71
2021/08/27 12:05:41;;;;;;;2.15;1.30;;;;;;;18.69;61.51;96034.38;5310885;55;20109;-71
2021/08/27 12:10:44;;;;;;;1.40;1.30;;;;;;;18.03;66.32;96046.81;5312614;55;20123;-72
2021/08/27 12:15:47;;;;;;;3.17;1.85;;;;;;;18.08;69.32;96051.63;5307396;55;20205;-72
2021/08/27 12:20:50;;;;;;;2.58;1.88;;;;;;;17.30;71.60;96053.28;5307053;55;20118;-72
2021/08/27 12:26:07;;;;;;;3.83;1.85;;;;;;;16.85;70.12;96045.00;5308002;55;20123;-71
2021/08/27 12:31:09;;;;;;;2.03;1.60;;;;;;;17.69;68.68;96042.69;5309203;56;20227;-71
2021/08/27 12:36:40;;;;;;;3.60;2.10;;;;;;;19.43;64.75;96028.25;5306480;55;20715;-71
2021/08/27 12:41:42;;;;;;;2.03;1.50;;;;;;;19.34;58.45;96031.41;5306211;55;20229;-71
2021/08/27 12:46:50;;;;;;;2.08;1.60;;;;;;;18.39;62.99;96044.78;5310165;55;20141;-71
2021/08/27 12:51:58;;;;;;;2.78;1.50;;;;;;;17.20;67.67;96053.56;5310730;55;20110;-72
2021/08/27 12:57:03;;;;;;;1.20;1.20;;;;;;;16.96;69.05;96056.16;5301124;55;20118;-71
2021/08/27 13:02:14;;;;;;;1.98;1.17;;;;;;;17.13;65.48;96045.72;5310144;55;20153;-72
2021/08/27 13:07:31;;;;;;;2.05;1.33;;;;;;;17.89;62.35;96048.69;5309380;55;20123;-72
2021/08/27 13:12:34;;;;;;;1.52;1.25;;;;;;;17.47;61.16;96051.16;5311370;55;20110;-71
2021/08/27 13:17:37;;;;;;;1.75;1.25;;;;;;;17.37;60.52;96058.34;5309091;55;20234;-71
2021/08/27 13:22:42;;;;;;;2.03;1.10;;;;;;;18.36;56.73;96052.19;5307918;55;20220;-71
2021/08/27 13:27:45;;;;;;;0.90;0.90;;;;;;;18.67;55.37;96058.59;5286692;55;20145;-71
2021/08/27 13:32:51;;;;;;;3.40;1.00;;;;;;;19.36;55.58;96058.94;5312584;55;20655;-71
2021/08/27 13:37:54;;;;;;;0.98;0.98;;;;;;;18.64;56.84;96063.19;5333837;55;20127;-72
2021/08/27 13:42:57;;;;;;;0.93;0.75;;;;;;;18.51;54.54;96058.22;5334247;55;20336;-71
2021/08/27 13:48:00;;;;;;;0.82;0.82;;;;;;;19.16;52.72;96062.94;5332330;55;20114;-72
2021/08/27 13:53:02;;;;;;;0.93;0.93;;;;;;;19.30;50.64;96065.31;5334489;55;20115;-71
2021/08/27 13:58:05;;;;;;;1.33;1.23;;;;;;;19.41;52.93;96067.25;5331305;55;20235;-70
2021/08/27 14:03:12;;;;;;;1.65;1.10;;;;;;;19.78;50.34;96072.19;5316117;55;20122;-71
2021/08/27 14:08:15;;;;;;;1.00;1.00;;;;;;;18.82;50.89;96072.94;5311136;55;20119;-73
2021/08/27 14:13:20;;;;;;;1.15;1.05;;;;;;;19.67;50.14;96059.06;5307928;55;20118;-72
2021/08/27 14:18:23;;;;;;;3.13;1.10;;;;;;;20.77;48.96;96057.97;5313484;55;20114;-71
2021/08/27 14:23:25;;;;;;;2.15;1.10;;;;;;;18.93;51.06;96076.41;5314501;55;20143;-72
2021/08/27 14:28:27;;;;;;;0.85;0.82;;;;;;;19.07;50.72;96063.28;5310641;55;20161;-73
2021/08/27 14:33:31;;;;;;;0.98;0.98;;;;;;;19.39;49.59;96067.03;5309756;55;20658;-72
2021/08/27 14:38:34;;;;;;;0.95;0.93;;;;;;;19.74;47.52;96064.03;5309718;55;20165;-73
2021/08/27 14:43:36;;;;;;;5.68;1.17;;;;;;;19.55;47.56;96082.91;5304125;55;20658;-72
2021/08/27 14:48:39;;;;;;;3.08;1.20;;;;;;;19.65;47.11;96075.63;5308715;55;20119;-72
2021/08/27 14:53:41;;;;;;;0.80;0.80;;;;;;;19.43;48.75;96067.50;5311278;55;20223;-73
2021/08/27 14:58:44;;;;;;;1.08;1.02;;;;;;;19.19;48.16;96064.69;5311022;55;20123;-71
2021/08/27 15:03:46;;;;;;;1.10;1.10;;;;;;;19.78;48.46;96063.75;5300300;55;20123;-72
2021/08/27 15:08:49;;;;;;;4.63;1.10;;;;;;;19.22;49.27;96069.97;5298643;55;20120;-72
2021/08/27 15:13:51;;;;;;;1.25;1.00;;;;;;;19.09;50.49;96078.28;5288217;56;20116;-71
2021/08/27 15:18:53;;;;;;;0.90;0.90;;;;;;;19.07;50.59;96072.44;5289348;56;20241;-72
2021/08/27 15:23:56;;;;;;;0.80;0.80;;;;;;;19.11;49.25;96064.50;5288258;56;20163;-72
2021/08/27 15:28:58;;;;;;;2.30;1.10;;;;;;;18.98;49.58;96069.22;5305164;55;20123;-72
2021/08/27 15:34:01;;;;;;;0.90;0.90;;;;;;;18.50;50.63;96069.91;5301729;55;20124;-72
2021/08/27 15:39:04;;;;;;;0.80;0.80;;;;;;;18.51;51.40;96068.63;5301184;55;20123;-72
2021/08/27 15:44:06;;;;;;;1.13;1.02;;;;;;;18.77;50.36;96066.09;5305861;55;20523;-73
2021/08/27 15:49:08;;;;;;;1.13;0.82;;;;;;;18.29;47.89;96066.75;5303027;55;20199;-72
2021/08/27 15:54:11;;;;;;;0.80;0.80;;;;;;;18.40;49.76;96072.25;5300114;55;20109;-72
2021/08/27 15:59:14;;;;;;;1.00;1.00;;;;;;;18.12;50.05;96068.88;5306565;55;20119;-72
2021/08/27 16:04:17;;;;;;;0.85;0.80;;;;;;;18.15;51.58;96076.25;5302981;55;20123;-71
2021/08/27 16:09:19;;;;;;;1.00;0.93;;;;;;;18.52;51.85;96059.72;5303792;55;20729;-72
2021/08/27 16:14:23;;;;;;;1.58;1.17;;;;;;;18.43;51.53;96076.78;5301007;55;20140;-72
2021/08/27 16:19:25;;;;;;;1.15;0.80;;;;;;;18.53;51.58;96080.06;5296625;55;20101;-72
2021/08/27 16:24:27;;;;;;;1.65;0.90;;;;;;;18.45;52.19;96076.31;5302816;55;20127;-71
2021/08/27 16:29:31;;;;;;;1.70;0.98;;;;;;;18.50;53.99;96079.06;5291607;55;20114;-71
2021/08/27 16:34:33;;;;;;;1.90;1.15;;;;;;;18.39;53.68;96078.34;5312589;55;20110;-72
2021/08/27 16:39:36;;;;;;;0.82;0.80;;;;;;;18.50;52.52;96070.66;5311083;55;20110;-72
2021/08/27 16:44:39;;;;;;;1.10;1.00;;;;;;;17.92;54.61;96063.66;5308074;55;20110;-72
2021/08/27 16:49:41;;;;;;;1.17;1.00;;;;;;;18.06;54.28;96078.59;5308978;55;20101;-73
2021/08/27 16:54:43;;;;;;;3.38;1.40;;;;;;;18.09;54.89;96069.91;5306647;56;20168;-74
2021/08/27 16:59:47;;;;;;;3.00;0.90;;;;;;;18.26;57.33;96064.22;5309037;56;20277;-72
2021/08/27 17:04:49;;;;;;;0.82;0.82;;;;;;;18.09;59.42;96066.38;5308618;55;20127;-72
2021/08/27 17:09:52;;;;;;;2.17;1.02;;;;;;;17.87;60.80;96067.25;5299356;56;20153;-72
2021/08/27 17:14:54;;;;;;;0.93;0.93;;;;;;;17.30;59.26;96067.97;5306650;56;20123;-72
2021/08/27 17:19:57;;;;;;;2.65;1.08;;;;;;;17.38;60.51;96068.22;5306704;56;20118;-72
2021/08/27 17:24:59;;;;;;;2.10;1.10;;;;;;;17.30;63.40;96067.97;5310282;55;20145;-72
2021/08/27 17:30:01;;;;;;;1.10;1.00;;;;;;;17.06;66.11;96073.38;5309649;55;20114;-72
2021/08/27 17:35:04;;;;;;;1.05;1.02;;;;;;;16.85;65.94;96064.53;5312225;55;20109;-71
2021/08/27 17:40:07;;;;;;;1.45;1.20;;;;;;;16.80;66.99;96081.31;5311531;55;20221;-72
2021/08/27 17:45:09;;;;;;;1.85;1.30;;;;;;;16.63;67.84;96083.34;5311506;55;20642;-72
2021/08/27 17:50:12;;;;;;;2.90;1.10;;;;;;;16.68;68.28;96085.38;5312064;55;20578;-72
2021/08/27 17:55:14;;;;;;;2.28;1.10;;;;;;;16.62;67.88;96090.97;5312660;55;20612;-74
2021/08/27 18:00:17;;;;;;;1.17;1.08;;;;;;;16.38;67.77;96105.38;5301504;55;20184;-72
2021/08/27 18:05:20;;;;;;;1.63;1.52;;;;;;;16.28;68.89;96106.13;5311471;55;20585;-72
2021/08/27 18:10:24;;;;;;;1.38;1.00;;;;;;;16.34;69.94;96116.03;5312601;55;20110;-71
2021/08/27 18:15:26;;;;;;;1.55;1.00;;;;;;;16.28;69.74;96122.84;5313151;55;20131;-71
2021/08/27 18:20:29;;;;;;;1.20;1.10;;;;;;;16.31;70.18;96121.84;5311402;55;20111;-73
2021/08/27 18:25:32;;;;;;;2.83;1.65;;;;;;;16.21;69.77;96131.72;5310652;55;20120;-72
2021/08/27 18:30:35;;;;;;;3.42;2.40;;;;;;;16.11;69.76;96131.19;5302648;55;20123;-72
2021/08/27 18:35:37;;;;;;;1.80;1.40;;;;;;;16.20;71.88;96139.31;5310885;55;20133;-73
2021/08/27 18:40:48;;;;;;;5.40;1.52;;;;;;;16.07;71.57;96135.47;5310564;55;20119;-73
2021/08/27 18:45:50;;;;;;;3.40;1.52;;;;;;;15.97;70.83;96131.38;5310679;55;20141;-73
2021/08/27 18:50:52;;;;;;;1.48;1.27;;;;;;;16.09;70.83;96138.53;5307276;55;20139;-73
2021/08/27 18:55:55;;;;;;;3.83;1.10;;;;;;;15.99;72.13;96151.19;5310152;55;20229;-72
2021/08/27 19:00:57;;;;;;;3.05;1.50;;;;;;;15.97;71.56;96153.69;5311849;55;20113;-73
2021/08/27 19:06:01;;;;;;;4.40;2.10;;;;;;;15.92;70.90;96157.22;5313959;55;20126;-72
2021/08/27 19:11:03;;;;;;;3.15;1.30;;;;;;;15.95;72.09;96164.56;5304215;55;20127;-72
2021/08/27 19:16:05;;;;;;;1.30;1.20;;;;;;;15.91;71.14;96161.28;5308624;55;20123;-74
2021/08/27 19:21:08;;;;;;;2.75;1.20;;;;;;;15.92;73.31;96162.81;5310498;55;20118;-72
2021/08/27 19:26:10;;;;;;;1.42;1.33;;;;;;;15.59;73.71;96164.19;5317909;55;20101;-72
2021/08/27 19:31:13;;;;;;;1.75;1.45;;;;;;;15.66;72.30;96163.72;5333439;55;20113;-72
2021/08/27 19:36:16;;;;;;;4.53;1.60;;;;;;;15.77;72.39;96169.31;5321630;55;20127;-74
2021/08/27 19:41:18;;;;;;;2.28;1.70;;;;;;;15.43;73.14;96173.19;5330936;55;20126;-72
2021/08/27 19:46:21;;;;;;;2.05;1.80;;;;;;;15.62;73.33;96163.19;5329274;55;20123;-72
2021/08/27 19:51:23;;;;;;;2.22;1.75;;;;;;;15.63;71.78;96161.91;5321553;55;20529;-72
2021/08/27 19:56:27;;;;;;;2.03;1.40;;;;;;;15.65;71.84;96161.41;5310210;55;20128;-72
2021/08/27 20:01:29;;;;;;;1.77;1.65;;;;;;;15.48;71.62;96164.13;5298737;55;20236;-72
2021/08/27 20:06:32;;;;;;;4.80;1.83;;;;;;;15.44;71.49;96176.75;5308431;55;20229;-72
2021/08/27 20:11:34;;;;;;;2.85;1.42;;;;;;;15.56;72.49;96164.41;5314532;55;20582;-72
2021/08/27 20:16:37;;;;;;;3.85;2.03;;;;;;;15.55;73.30;96163.66;5305841;55;20132;-72
2021/08/27 20:21:39;;;;;;;2.08;1.98;;;;;;;15.59;71.83;96171.78;5309020;55;20118;-72
2021/08/27 20:26:42;;;;;;;3.63;1.98;;;;;;;15.27;73.37;96162.69;5297762;55;20759;-73
2021/08/27 20:31:44;;;;;;;1.70;1.60;;;;;;;15.24;73.24;96174.84;5298353;56;20954;-73
2021/08/27 20:36:47;;;;;;;1.77;1.67;;;;;;;15.33;72.65;96169.09;5310902;56;20128;-73
2021/08/27 20:41:49;;;;;;;1.88;1.73;;;;;;;15.45;74.29;96170.69;5309725;56;20123;-72
2021/08/27 20:46:51;;;;;;;1.73;1.42;;;;;;;15.47;73.41;96165.38;5308254;56;20164;-72
2021/08/27 21:47:36;;;;;;;4.45;1.98;;;;;;;14.62;76.27;96163.75;5240208;56;20243;-73
2021/08/27 21:52:38;;;;;;;2.70;2.10;;;;;;;14.64;76.69;96152.88;5244722;56;20149;-73
2021/08/27 21:57:41;;;;;;;2.08;1.90;;;;;;;14.67;77.74;96154.69;5246225;56;20174;-74
2021/08/27 22:02:43;;;;;;;3.20;1.70;;;;;;;14.68;76.88;96154.19;5236217;56;20113;-75
2021/08/27 22:07:46;;;;;;;3.50;2.38;;;;;;;14.73;77.03;96144.34;5237583;56;20218;-73
2021/08/27 22:12:50;;;;;;;4.88;2.30;;;;;;;14.83;76.45;96146.47;5217336;56;20122;-73
2021/08/27 22:17:53;;;;;;;3.22;2.33;;;;;;;14.73;77.26;96153.47;5216624;56;20211;-73
2021/08/27 22:22:56;;;;;;;2.75;2.20;;;;;;;14.69;77.76;96150.16;5225135;56;20219;-73
2021/08/27 22:27:59;;;;;;;2.38;2.10;;;;;;;14.62;77.21;96150.59;5207869;56;20149;-73
2021/08/27 22:33:02;;;;;;;2.55;2.35;;;;;;;14.78;77.21;96149.22;5207891;56;20127;-71
2021/08/27 22:38:05;;;;;;;2.28;2.08;;;;;;;14.81;75.85;96139.88;5206666;56;20886;-73
2021/08/27 22:43:08;;;;;;;2.45;2.25;;;;;;;14.61;76.91;96149.06;5228922;56;20737;-73
2021/08/27 22:48:10;;;;;;;3.50;2.30;;;;;;;14.66;75.83;96145.56;5223113;56;20144;-73
2021/08/27 22:53:13;;;;;;;2.97;2.10;;;;;;;14.79;76.32;96151.47;5223855;56;20130;-74
2021/08/27 22:58:15;;;;;;;2.50;2.33;;;;;;;14.82;76.41;96144.19;5224129;56;20126;-74
2021/08/27 23:03:18;;;;;;;5.70;2.30;;;;;;;14.80;75.80;96143.91;5224316;56;20130;-71
2021/08/27 23:08:21;;;;;;;2.60;2.40;;;;;;;14.79;76.99;96150.75;5223731;56;20755;-71
2021/08/27 23:13:23;;;;;;;3.15;2.47;;;;;;;14.75;77.62;96166.88;5223404;56;20555;-73
2021/08/27 23:18:25;;;;;;;3.85;2.50;;;;;;;14.85;79.14;96163.44;5225730;56;20126;-74
2021/08/27 23:23:28;;;;;;;3.92;2.50;;;;;;;14.55;81.89;96155.84;5226396;56;20131;-73
2021/08/27 23:28:30;;;;;;;3.65;2.72;;;;;;;14.54;83.42;96154.31;5215298;56;20130;-74
2021/08/27 23:33:33;;;;;;;4.43;2.88;;;;;;;14.48;84.71;96154.25;5224159;56;20117;-74
2021/08/27 23:38:35;;;;;;;2.83;2.58;;;;;;;14.40;83.96;96150.41;5223624;56;20118;-71
2021/08/27 23:43:38;;;;;;;2.75;2.53;;;;;;;14.04;86.32;96153.81;5215969;56;20122;-73
2021/08/27 23:48:41;;;;;;;3.45;2.47;;;;;;;14.16;85.63;96150.63;5215553;56;20118;-71
2021/08/27 23:53:43;;;;;;;3.15;2.95;;;;;;;14.25;86.06;96147.69;5227290;56;20127;-71
2021/08/27 23:58:45;;;;;;;7.63;3.10;;;;;;;14.22;85.93;96145.91;5225118;56;20127;-72
